createdAt,value
2022-07-27T00:00:50.174Z,2.83
2022-07-27T00:03:17.068Z,2.43
2022-07-27T00:05:44.398Z,2.37
2022-07-27T00:08:11.232Z,2.10
2022-07-27T00:10:38.126Z,2.03
2022-07-27T00:13:06.056Z,2.10
2022-07-27T00:15:33.471Z,2.40
2022-07-27T00:18:01.093Z,2.13
2022-07-27T00:20:28.651Z,2.27
2022-07-27T00:22:56.013Z,2.23
2022-07-27T00:25:24.667Z,2.30
2022-07-27T00:27:51.514Z,2.13
2022-07-27T00:30:18.431Z,2.17
2022-07-27T00:32:45.701Z,2.23
2022-07-27T00:35:13.529Z,2.40
2022-07-27T00:37:40.328Z,1.87
2022-07-27T00:40:07.900Z,2.10
2022-07-27T00:42:35.430Z,2.07
2022-07-27T00:45:03.064Z,1.97
2022-07-27T00:47:29.869Z,2.00
2022-07-27T00:49:57.412Z,2.00
2022-07-27T00:52:24.525Z,1.90
2022-07-27T00:54:52.003Z,2.00
2022-07-27T00:57:18.861Z,1.80
2022-07-27T00:59:45.618Z,2.30
2022-07-27T01:02:12.657Z,1.70
2022-07-27T01:04:46.678Z,2.03
2022-07-27T01:07:14.358Z,2.00
2022-07-27T01:09:56.472Z,1.87
2022-07-27T01:12:23.984Z,1.80
2022-07-27T01:14:51.558Z,1.80
2022-07-27T01:17:18.948Z,1.80
2022-07-27T01:19:46.044Z,1.90
2022-07-27T01:22:12.955Z,2.20
2022-07-27T01:24:39.977Z,2.07
2022-07-27T01:27:07.171Z,2.00
2022-07-27T01:29:34.612Z,2.00
2022-07-27T01:32:01.562Z,2.33
2022-07-27T01:34:28.451Z,2.10
2022-07-27T01:36:55.456Z,2.07
2022-07-27T01:39:22.326Z,2.43
2022-07-27T01:41:49.155Z,2.50
2022-07-27T01:44:16.004Z,2.50
2022-07-27T01:46:42.894Z,2.47
2022-07-27T01:49:10.206Z,2.40
2022-07-27T01:51:37.207Z,2.47
2022-07-27T01:54:04.159Z,2.50
2022-07-27T01:56:30.932Z,2.40
2022-07-27T01:58:58.959Z,2.10
2022-07-27T02:01:26.114Z,2.20
2022-07-27T02:03:53.100Z,2.40
2022-07-27T02:06:19.909Z,2.70
2022-07-27T02:08:46.765Z,2.60
2022-07-27T02:11:32.205Z,2.30
2022-07-27T02:13:59.013Z,2.50
2022-07-27T02:16:25.855Z,2.30
2022-07-27T02:18:52.749Z,2.37
2022-07-27T02:21:19.515Z,2.60
2022-07-27T02:23:48.244Z,2.47
2022-07-27T02:26:15.051Z,2.30
2022-07-27T02:28:42.197Z,2.50
2022-07-27T02:31:08.938Z,2.70
2022-07-27T02:33:35.798Z,2.70
2022-07-27T02:36:02.792Z,2.60
2022-07-27T02:38:29.666Z,2.53
2022-07-27T02:40:56.448Z,3.00
2022-07-27T02:43:23.534Z,3.03
2022-07-27T02:45:50.706Z,2.80
2022-07-27T02:48:17.467Z,2.50
2022-07-27T02:50:44.343Z,2.70
2022-07-27T02:53:11.331Z,3.30
2022-07-27T02:55:38.140Z,3.33
2022-07-27T02:58:04.948Z,3.20
2022-07-27T03:00:31.763Z,3.20
2022-07-27T03:02:58.532Z,3.13
2022-07-27T03:05:25.331Z,3.70
2022-07-27T03:07:52.349Z,2.93
2022-07-27T03:10:19.108Z,3.03
2022-07-27T03:12:45.899Z,3.40
2022-07-27T03:15:12.865Z,3.10
2022-07-27T03:17:39.826Z,3.37
2022-07-27T03:20:08.105Z,3.30
2022-07-27T03:22:37.400Z,3.63
2022-07-27T03:25:04.369Z,3.37
2022-07-27T03:27:31.217Z,3.70
2022-07-27T03:29:58.004Z,4.00
2022-07-27T03:32:24.789Z,3.40
2022-07-27T03:34:51.669Z,3.17
2022-07-27T03:37:19.904Z,3.80
2022-07-27T03:39:46.838Z,3.10
2022-07-27T03:42:13.712Z,3.70
2022-07-27T03:44:40.529Z,3.77
2022-07-27T03:47:07.380Z,3.60
2022-07-27T03:49:34.305Z,3.40
2022-07-27T03:52:01.191Z,3.77
2022-07-27T03:54:28.085Z,4.00
2022-07-27T03:56:54.994Z,4.10
2022-07-27T03:59:21.825Z,4.00
2022-07-27T04:01:48.768Z,4.30
2022-07-27T04:04:15.614Z,4.10
2022-07-27T04:06:42.587Z,4.10
2022-07-27T04:09:09.500Z,4.47
2022-07-27T04:11:37.847Z,4.10
2022-07-27T04:14:15.120Z,3.83
2022-07-27T04:16:41.868Z,3.73
2022-07-27T04:19:09.012Z,4.40
2022-07-27T04:21:35.889Z,4.13
2022-07-27T04:24:02.912Z,3.80
2022-07-27T04:26:29.985Z,3.73
2022-07-27T04:28:56.820Z,4.00
2022-07-27T04:31:23.800Z,3.67
2022-07-27T04:33:50.934Z,3.83
2022-07-27T04:36:17.837Z,3.67
2022-07-27T04:38:44.818Z,3.40
2022-07-27T04:41:12.804Z,3.80
2022-07-27T04:43:39.829Z,3.30
2022-07-27T04:46:10.519Z,3.90
2022-07-27T04:48:40.272Z,3.30
2022-07-27T04:51:08.338Z,3.33
2022-07-27T04:53:36.907Z,3.37
2022-07-27T04:56:20.250Z,3.90
2022-07-27T04:58:47.594Z,3.70
2022-07-27T05:01:14.676Z,3.67
2022-07-27T05:03:43.035Z,3.43
2022-07-27T05:06:09.887Z,3.37
2022-07-27T05:08:37.447Z,3.20
2022-07-27T05:11:04.589Z,3.77
2022-07-27T05:13:31.411Z,4.17
2022-07-27T05:15:58.548Z,3.97
2022-07-27T05:18:25.874Z,3.80
2022-07-27T05:20:52.844Z,3.90
2022-07-27T05:23:19.844Z,3.80
2022-07-27T05:25:46.743Z,3.90
2022-07-27T05:28:14.053Z,4.07
2022-07-27T05:30:40.907Z,4.30
2022-07-27T05:33:07.872Z,4.20
2022-07-27T05:35:34.739Z,4.17
2022-07-27T05:38:01.577Z,3.90
2022-07-27T05:40:28.513Z,4.20
2022-07-27T05:42:55.507Z,4.37
2022-07-27T05:45:22.466Z,4.10
2022-07-27T05:47:49.605Z,3.93
2022-07-27T05:50:17.917Z,3.70
2022-07-27T05:52:44.751Z,3.90
2022-07-27T05:55:12.052Z,4.13
2022-07-27T05:57:40.942Z,3.80
2022-07-27T06:00:08.369Z,3.53
2022-07-27T06:02:41.347Z,3.80
2022-07-27T06:05:13.385Z,3.70
2022-07-27T06:08:01.615Z,3.97
2022-07-27T06:10:29.712Z,3.30
2022-07-27T06:12:56.858Z,3.60
2022-07-27T06:15:23.831Z,3.30
2022-07-27T06:17:52.704Z,3.37
2022-07-27T06:20:20.477Z,3.70
2022-07-27T06:22:52.140Z,3.67
2022-07-27T06:25:21.996Z,3.67
2022-07-27T06:27:49.008Z,3.63
2022-07-27T06:30:17.885Z,3.50
2022-07-27T06:32:44.859Z,3.60
2022-07-27T06:35:13.837Z,3.77
2022-07-27T06:37:44.060Z,3.30
2022-07-27T06:40:14.368Z,3.13
2022-07-27T06:42:41.936Z,3.20
2022-07-27T06:45:09.311Z,2.93
2022-07-27T06:47:36.334Z,3.00
2022-07-27T06:50:16.632Z,3.37
2022-07-27T06:52:43.637Z,2.50
2022-07-27T06:55:10.392Z,2.60
2022-07-27T06:57:37.225Z,2.83
2022-07-27T07:00:04.675Z,3.00
2022-07-27T07:02:31.488Z,2.80
2022-07-27T07:04:59.050Z,3.00
2022-07-27T07:07:25.863Z,3.03
2022-07-27T07:09:52.681Z,2.60
2022-07-27T07:12:19.705Z,3.07
2022-07-27T07:14:46.657Z,2.73
2022-07-27T07:17:13.476Z,2.87
2022-07-27T07:19:40.279Z,2.90
2022-07-27T07:22:07.050Z,2.80
2022-07-27T07:24:33.835Z,3.27
2022-07-27T07:27:00.612Z,2.67
2022-07-27T07:29:27.762Z,3.33
2022-07-27T07:31:54.588Z,3.10
2022-07-27T07:34:21.498Z,2.93
2022-07-27T07:36:48.274Z,3.00
2022-07-27T07:39:15.489Z,2.77
2022-07-27T07:41:42.577Z,3.30
2022-07-27T07:44:09.976Z,2.53
2022-07-27T07:46:37.016Z,2.80
2022-07-27T07:49:04.753Z,2.53
2022-07-27T07:51:32.131Z,2.87
2022-07-27T07:53:59.183Z,2.50
2022-07-27T07:56:26.025Z,2.90
2022-07-27T07:58:52.893Z,2.90
2022-07-27T08:01:19.810Z,2.53
2022-07-27T08:03:50.888Z,2.73
2022-07-27T08:06:18.745Z,2.80
2022-07-27T08:08:45.553Z,2.83
2022-07-27T08:11:12.307Z,2.50
2022-07-27T08:13:41.137Z,2.67
2022-07-27T08:16:08.045Z,3.03
2022-07-27T08:18:34.816Z,2.70
2022-07-27T08:21:01.613Z,3.20
2022-07-27T08:23:28.423Z,2.87
2022-07-27T08:25:55.335Z,3.07
2022-07-27T08:28:22.643Z,2.73
2022-07-27T08:30:49.647Z,2.90
2022-07-27T08:33:16.638Z,2.70
2022-07-27T08:35:44.656Z,4.47
2022-07-27T08:38:11.504Z,3.57
2022-07-27T08:40:42.627Z,3.67
2022-07-27T08:43:11.444Z,3.50
2022-07-27T08:45:38.497Z,3.37
2022-07-27T08:48:05.641Z,3.47
2022-07-27T08:50:34.518Z,3.13
2022-07-27T08:53:03.922Z,3.00
2022-07-27T08:55:35.612Z,2.93
2022-07-27T08:58:03.885Z,3.10
2022-07-27T09:00:33.012Z,3.40
2022-07-27T09:02:59.878Z,3.37
2022-07-27T09:05:27.690Z,2.60
2022-07-27T09:08:11.297Z,3.17
2022-07-27T09:10:38.382Z,2.87
2022-07-27T09:13:25.576Z,3.23
2022-07-27T09:16:18.730Z,3.47
2022-07-27T09:18:43.409Z,3.23
2022-07-27T09:21:10.383Z,3.13
2022-07-27T09:23:38.249Z,3.13
2022-07-27T09:26:29.614Z,3.03
2022-07-27T09:28:59.082Z,2.93
2022-07-27T09:31:26.116Z,3.30
2022-07-27T09:33:53.897Z,2.80
2022-07-27T09:36:22.318Z,2.47
2022-07-27T09:38:55.269Z,2.80
2022-07-27T09:41:27.028Z,2.80
2022-07-27T09:46:43.039Z,2.53
2022-07-27T09:49:26.347Z,2.77
2022-07-27T09:51:59.884Z,3.07
2022-07-27T09:54:28.009Z,2.93
2022-07-27T09:57:01.832Z,2.77
2022-07-27T09:59:28.988Z,2.70
2022-07-27T10:01:56.304Z,2.83
2022-07-27T10:04:23.674Z,3.00
2022-07-27T10:07:02.958Z,2.67
2022-07-27T10:09:31.882Z,2.50
2022-07-27T10:11:58.964Z,2.50
2022-07-27T10:14:25.776Z,2.80
2022-07-27T10:16:53.644Z,2.97
2022-07-27T10:19:29.370Z,2.60
2022-07-27T10:21:56.251Z,2.67
2022-07-27T10:24:23.091Z,2.60
2022-07-27T10:26:50.093Z,2.60
2022-07-27T10:29:18.410Z,2.60
2022-07-27T10:31:54.382Z,2.53
2022-07-27T10:34:37.761Z,2.90
2022-07-27T10:37:14.882Z,3.17
2022-07-27T10:39:43.186Z,2.63
2022-07-27T10:42:19.253Z,2.53
2022-07-27T10:44:56.547Z,2.90
2022-07-27T10:47:50.289Z,2.40
2022-07-27T10:50:17.042Z,2.80
2022-07-27T10:52:44.996Z,2.53
2022-07-27T10:55:30.495Z,3.20
2022-07-27T10:57:58.228Z,2.50
2022-07-27T11:00:43.851Z,2.93
2022-07-27T11:03:19.364Z,2.70
2022-07-27T11:05:59.998Z,2.93
2022-07-27T11:08:37.592Z,2.70
2022-07-27T11:11:08.443Z,2.63
2022-07-27T11:13:38.653Z,2.53
2022-07-27T11:16:23.384Z,2.70
2022-07-27T11:18:53.937Z,2.20
2022-07-27T11:21:26.104Z,2.00
2022-07-27T11:23:54.864Z,2.10
2022-07-27T11:26:22.578Z,2.28
2022-07-27T11:28:49.749Z,2.35
2022-07-27T11:31:32.452Z,2.28
2022-07-27T11:34:03.971Z,2.10
2022-07-27T11:36:52.525Z,2.40
2022-07-27T11:39:54.316Z,2.05
2022-07-27T11:42:17.700Z,1.90
2022-07-27T11:44:47.800Z,2.00
2022-07-27T11:47:18.385Z,1.98
2022-07-27T11:49:45.409Z,2.25
2022-07-27T11:52:12.536Z,2.22
2022-07-27T11:54:40.539Z,2.22
2022-07-27T11:57:08.715Z,2.63
2022-07-27T11:59:39.813Z,2.40
2022-07-27T12:02:07.985Z,2.40
2022-07-27T12:04:36.049Z,2.50
2022-07-27T12:07:05.904Z,2.40
2022-07-27T12:09:38.603Z,2.27
2022-07-27T12:12:10.707Z,2.87
2022-07-27T12:14:38.734Z,2.13
2022-07-27T12:17:24.420Z,2.40
2022-07-27T12:19:55.616Z,2.20
2022-07-27T12:22:23.609Z,2.27
2022-07-27T12:24:50.375Z,2.47
2022-07-27T12:27:17.528Z,2.67
2022-07-27T12:29:59.524Z,3.27
2022-07-27T12:32:27.197Z,3.87
2022-07-27T12:34:54.668Z,4.93
2022-07-27T12:37:21.837Z,3.40
2022-07-27T12:39:48.963Z,3.00
2022-07-27T12:42:16.086Z,2.97
2022-07-27T12:44:44.542Z,2.50
2022-07-27T12:47:29.920Z,3.20
2022-07-27T12:50:04.785Z,2.83
2022-07-27T12:52:32.521Z,3.00
2022-07-27T12:54:59.374Z,3.23
2022-07-27T12:57:46.636Z,3.23
2022-07-27T13:00:18.180Z,2.50
2022-07-27T13:02:45.810Z,2.83
2022-07-27T13:05:13.672Z,1.90
2022-07-27T13:07:43.092Z,2.37
2022-07-27T13:10:10.776Z,2.30
2022-07-27T13:12:38.140Z,2.40
2022-07-27T13:15:05.729Z,2.40
2022-07-27T13:17:32.644Z,2.53
2022-07-27T13:19:59.406Z,2.13
2022-07-27T13:22:26.319Z,2.40
2022-07-27T13:24:53.137Z,2.20
2022-07-27T13:27:20.658Z,1.90
2022-07-27T13:29:47.592Z,1.90
2022-07-27T13:32:14.451Z,1.83
2022-07-27T13:34:45.124Z,2.20
2022-07-27T13:37:12.018Z,1.83
2022-07-27T13:39:38.889Z,2.20
2022-07-27T13:42:05.780Z,2.10
2022-07-27T13:45:02.194Z,2.30
2022-07-27T13:47:19.399Z,2.20
2022-07-27T13:49:46.128Z,2.17
2022-07-27T13:52:15.094Z,1.90
2022-07-27T13:54:41.936Z,2.30
2022-07-27T13:57:09.015Z,2.40
2022-07-27T13:59:35.787Z,1.93
2022-07-27T14:02:02.854Z,2.17
2022-07-27T14:04:30.749Z,2.00
2022-07-27T14:06:58.831Z,2.20
2022-07-27T14:09:45.618Z,2.17
2022-07-27T14:12:12.909Z,1.93
2022-07-27T14:14:39.832Z,1.70
2022-07-27T14:17:06.958Z,1.90
2022-07-27T14:19:35.538Z,2.13
2022-07-27T14:22:02.792Z,2.40
2022-07-27T14:24:30.931Z,1.90
2022-07-27T14:26:59.349Z,1.90
2022-07-27T14:29:26.485Z,1.80
2022-07-27T14:31:53.389Z,2.00
2022-07-27T14:34:20.382Z,2.03
2022-07-27T14:36:47.137Z,2.23
2022-07-27T14:39:14.257Z,2.03
2022-07-27T14:41:44.289Z,2.40
2022-07-27T14:44:11.415Z,2.30
2022-07-27T14:46:39.417Z,2.20
2022-07-27T14:49:08.456Z,2.10
2022-07-27T14:51:35.720Z,2.20
2022-07-27T14:54:03.705Z,2.33
2022-07-27T14:56:30.573Z,1.93
2022-07-27T14:58:57.601Z,2.10
2022-07-27T15:01:24.563Z,2.07
2022-07-27T15:03:51.420Z,2.00
2022-07-27T15:06:18.352Z,2.03
2022-07-27T15:08:45.209Z,2.00
2022-07-27T15:11:12.017Z,1.93
2022-07-27T15:13:38.942Z,1.80
2022-07-27T15:16:06.097Z,2.10
2022-07-27T15:18:38.454Z,2.00
2022-07-27T15:21:06.705Z,1.70
2022-07-27T15:23:40.098Z,1.90
2022-07-27T15:26:06.908Z,1.80
2022-07-27T15:28:33.720Z,1.97
2022-07-27T15:31:00.602Z,1.90
2022-07-27T15:33:28.597Z,2.10
2022-07-27T15:35:55.975Z,1.80
2022-07-27T15:38:22.885Z,1.70
2022-07-27T15:40:49.868Z,2.00
2022-07-27T15:43:17.629Z,2.90
2022-07-27T15:45:45.694Z,2.30
2022-07-27T15:48:12.691Z,2.43
2022-07-27T15:50:40.671Z,2.00
2022-07-27T15:53:07.833Z,1.90
2022-07-27T15:55:35.405Z,2.30
2022-07-27T15:58:02.168Z,1.80
2022-07-27T16:00:29.282Z,1.70
2022-07-27T16:02:56.806Z,2.00
2022-07-27T16:05:23.890Z,1.67
2022-07-27T16:07:50.753Z,1.70
2022-07-27T16:10:17.781Z,1.80
2022-07-27T16:12:44.687Z,1.77
2022-07-27T16:15:11.589Z,1.93
2022-07-27T16:17:38.689Z,2.23
2022-07-27T16:20:05.893Z,2.20
2022-07-27T16:22:34.177Z,1.90
2022-07-27T16:25:01.482Z,4.27
2022-07-27T16:27:28.645Z,2.73
2022-07-27T16:29:55.709Z,5.20
2022-07-27T16:32:22.575Z,3.53
2022-07-27T16:34:49.470Z,2.90
2022-07-27T16:37:16.315Z,2.90
2022-07-27T16:39:43.242Z,2.40
2022-07-27T16:42:10.072Z,3.13
2022-07-27T16:44:39.368Z,3.00
2022-07-27T16:47:06.860Z,2.90
2022-07-27T16:49:36.908Z,3.10
2022-07-27T16:52:04.813Z,2.60
2022-07-27T16:54:36.958Z,2.47
2022-07-27T16:57:06.374Z,6.53
2022-07-27T16:59:33.272Z,2.60
2022-07-27T17:02:00.230Z,1.80
2022-07-27T17:04:27.885Z,1.93
2022-07-27T17:06:54.889Z,1.77
2022-07-27T17:09:21.770Z,1.70
2022-07-27T17:11:48.718Z,1.73
2022-07-27T17:14:16.579Z,2.00
2022-07-27T17:16:50.283Z,2.10
2022-07-27T17:19:19.750Z,1.70
2022-07-27T17:21:47.882Z,1.90
2022-07-27T17:24:14.908Z,2.80
2022-07-27T17:26:41.686Z,3.27
2022-07-27T17:29:08.508Z,2.97
2022-07-27T17:31:35.343Z,2.10
2022-07-27T17:34:02.760Z,2.00
2022-07-27T17:36:29.645Z,1.80
2022-07-27T17:38:56.799Z,1.80
2022-07-27T17:41:25.492Z,1.93
2022-07-27T17:43:55.195Z,1.80
2022-07-27T17:46:23.029Z,1.50
2022-07-27T17:48:50.226Z,1.57
2022-07-27T17:51:17.380Z,1.70
2022-07-27T17:53:44.521Z,1.53
2022-07-27T17:56:11.623Z,2.30
2022-07-27T17:58:38.639Z,2.50
2022-07-27T18:01:09.144Z,1.83
2022-07-27T18:03:36.096Z,1.60
2022-07-27T18:06:03.318Z,1.80
2022-07-27T18:08:30.113Z,1.67
2022-07-27T18:10:57.008Z,1.77
2022-07-27T18:13:39.377Z,2.00
2022-07-27T18:16:09.197Z,1.90
2022-07-27T18:18:37.062Z,1.60
2022-07-27T18:21:04.651Z,1.60
2022-07-27T18:23:31.938Z,2.00
2022-07-27T18:25:58.897Z,1.97
2022-07-27T18:28:25.671Z,2.50
2022-07-27T18:30:52.868Z,2.37
2022-07-27T18:33:20.327Z,2.40
2022-07-27T18:35:47.485Z,2.17
2022-07-27T18:38:14.671Z,2.17
2022-07-27T18:40:44.184Z,2.23
2022-07-27T18:43:11.547Z,1.90
2022-07-27T18:45:38.933Z,1.57
2022-07-27T18:48:06.283Z,1.90
2022-07-27T18:50:38.697Z,1.90
2022-07-27T18:53:06.420Z,1.60
2022-07-27T18:55:33.250Z,2.10
2022-07-27T18:58:00.104Z,1.80
2022-07-27T19:00:27.480Z,1.70
2022-07-27T19:02:57.248Z,2.13
2022-07-27T19:05:32.570Z,1.80
2022-07-27T19:08:11.435Z,1.43
2022-07-27T19:10:41.346Z,1.80
2022-07-27T19:13:08.977Z,2.00
2022-07-27T19:15:36.180Z,1.83
2022-07-27T19:18:03.703Z,1.73
2022-07-27T19:20:31.002Z,2.37
2022-07-27T19:22:59.686Z,2.10
2022-07-27T19:25:26.722Z,1.97
2022-07-27T19:27:53.541Z,2.37
2022-07-27T19:30:20.395Z,2.03
2022-07-27T19:32:47.256Z,1.93
2022-07-27T19:35:15.262Z,2.10
2022-07-27T19:37:42.237Z,2.10
2022-07-27T19:40:41.592Z,2.40
2022-07-27T19:42:56.194Z,2.20
2022-07-27T19:45:23.008Z,2.13
2022-07-27T19:47:51.694Z,1.67
2022-07-27T19:50:18.895Z,1.90
2022-07-27T19:52:45.731Z,1.93
2022-07-27T19:55:12.613Z,1.90
2022-07-27T19:57:39.627Z,1.90
2022-07-27T20:00:08.652Z,2.07
2022-07-27T20:02:35.596Z,1.90
2022-07-27T20:05:02.875Z,1.83
2022-07-27T20:07:29.785Z,2.20
2022-07-27T20:09:56.551Z,2.00
2022-07-27T20:12:24.263Z,1.97
2022-07-27T20:14:51.170Z,2.07
2022-07-27T20:17:18.138Z,1.80
2022-07-27T20:19:45.282Z,2.30
2022-07-27T20:22:12.230Z,2.10
2022-07-27T20:24:39.184Z,2.17
2022-07-27T20:27:06.154Z,2.10
2022-07-27T20:29:33.194Z,2.20
2022-07-27T20:32:00.139Z,2.00
2022-07-27T20:34:28.092Z,2.07
2022-07-27T20:36:55.624Z,1.73
2022-07-27T20:39:25.340Z,2.00
2022-07-27T20:41:52.567Z,1.80
2022-07-27T20:44:20.959Z,2.10
2022-07-27T20:46:48.059Z,2.00
2022-07-27T20:49:16.387Z,1.90
2022-07-27T20:51:44.006Z,1.70
2022-07-27T20:54:10.980Z,2.10
2022-07-27T20:56:38.038Z,2.10
2022-07-27T20:59:07.793Z,1.57
2022-07-27T21:01:36.032Z,1.93
2022-07-27T21:04:03.085Z,1.80
2022-07-27T21:06:29.970Z,1.87
2022-07-27T21:08:56.838Z,2.00
2022-07-27T21:11:23.658Z,1.80
2022-07-27T21:13:50.529Z,1.83
2022-07-27T21:16:17.555Z,2.00
2022-07-27T21:18:44.860Z,1.70
2022-07-27T21:21:11.684Z,2.07
2022-07-27T21:23:57.218Z,2.00
2022-07-27T21:26:24.039Z,2.07
2022-07-27T21:28:51.870Z,2.03
2022-07-27T21:31:19.895Z,1.93
2022-07-27T21:33:47.682Z,1.83
2022-07-27T21:36:14.627Z,1.80
2022-07-27T21:38:41.446Z,2.03
2022-07-27T21:41:08.285Z,2.20
2022-07-27T21:43:35.394Z,1.77
2022-07-27T21:46:02.287Z,2.10
2022-07-27T21:48:29.147Z,1.77
2022-07-27T21:50:56.966Z,2.10
2022-07-27T21:53:24.154Z,2.10
2022-07-27T21:55:51.944Z,1.90
2022-07-27T21:58:19.740Z,1.80
2022-07-27T22:00:46.626Z,2.30
2022-07-27T22:03:14.669Z,2.13
2022-07-27T22:05:41.505Z,2.10
2022-07-27T22:08:08.488Z,1.80
2022-07-27T22:10:35.301Z,2.60
2022-07-27T22:13:02.284Z,2.10
2022-07-27T22:15:29.212Z,1.97
2022-07-27T22:17:56.025Z,1.73
2022-07-27T22:20:23.375Z,1.93
2022-07-27T22:22:50.412Z,2.30
2022-07-27T22:25:18.291Z,2.30
2022-07-27T22:27:45.048Z,2.17
2022-07-27T22:30:12.077Z,1.80
2022-07-27T22:32:38.914Z,1.83
2022-07-27T22:35:06.117Z,1.93
2022-07-27T22:37:32.908Z,1.90
2022-07-27T22:39:59.674Z,2.17
2022-07-27T22:42:26.471Z,2.07
2022-07-27T22:44:53.327Z,1.70
2022-07-27T22:47:20.090Z,1.87
2022-07-27T22:49:47.357Z,2.13
2022-07-27T22:52:14.228Z,1.87
2022-07-27T22:54:41.970Z,1.73
2022-07-27T22:57:08.806Z,1.97
2022-07-27T22:59:35.940Z,1.57
2022-07-27T23:02:03.515Z,1.63
2022-07-27T23:04:30.489Z,1.70
2022-07-27T23:06:57.557Z,1.90
2022-07-27T23:09:24.369Z,1.50
2022-07-27T23:11:51.286Z,1.60
2022-07-27T23:14:18.829Z,2.03
2022-07-27T23:16:45.989Z,1.90
2022-07-27T23:19:12.942Z,1.57
2022-07-27T23:21:42.038Z,2.10
2022-07-27T23:24:10.136Z,1.80
2022-07-27T23:26:38.372Z,1.67
2022-07-27T23:29:05.282Z,1.70
2022-07-27T23:31:32.178Z,1.70
2022-07-27T23:33:59.004Z,2.00
2022-07-27T23:36:25.947Z,1.70
2022-07-27T23:38:52.840Z,1.90
2022-07-27T23:41:19.709Z,1.93
2022-07-27T23:43:46.480Z,1.77
2022-07-27T23:46:13.459Z,1.70
2022-07-27T23:48:40.339Z,1.90
2022-07-27T23:51:08.935Z,1.70
2022-07-27T23:53:35.865Z,1.50
2022-07-27T23:56:02.730Z,1.70
2022-07-27T23:58:29.713Z,1.73
